createdAt,value
2023-10-19T00:03:58.738Z,99266.44
2023-10-19T00:09:22.220Z,99267.78
2023-10-19T00:14:44.448Z,99254.28
2023-10-19T00:20:28.883Z,99263.44
2023-10-19T00:25:53.914Z,99266.31
2023-10-19T00:31:16.653Z,99262.31
2023-10-19T00:36:40.931Z,99262.97
2023-10-19T00:42:04.089Z,99266.59
2023-10-19T00:47:26.736Z,99264.91
2023-10-19T00:52:53.504Z,99267.25
2023-10-19T00:58:19.806Z,99266.16
2023-10-19T01:03:42.220Z,99271.97
2023-10-19T01:09:05.446Z,99270.59
2023-10-19T01:14:29.992Z,99270.66
2023-10-19T01:19:52.620Z,99268.41
2023-10-19T01:25:22.124Z,99275.56
2023-10-19T01:30:44.165Z,99280.13
2023-10-19T01:36:13.665Z,99277.84
2023-10-19T01:41:36.563Z,99290.66
2023-10-19T01:46:58.921Z,99286.09
2023-10-19T01:52:21.159Z,99281.84
2023-10-19T01:57:43.220Z,99300.25
2023-10-19T02:03:10.221Z,99293.28
2023-10-19T02:08:32.294Z,99299.69
2023-10-19T02:13:57.508Z,99300.34
2023-10-19T02:19:21.623Z,99300.06
2023-10-19T02:24:44.032Z,99301.22
2023-10-19T02:30:06.973Z,99298.16
2023-10-19T02:35:29.781Z,99300.31
2023-10-19T02:40:52.398Z,99303.25
2023-10-19T02:46:16.362Z,99304.38
2023-10-19T02:51:46.442Z,99310.22
2023-10-19T02:57:11.562Z,99309.69
2023-10-19T03:02:33.803Z,99309.53
2023-10-19T03:07:56.633Z,99308.69
2023-10-19T03:13:19.213Z,99313.13
2023-10-19T03:18:42.428Z,99312.06
2023-10-19T03:24:14.245Z,99318.03
2023-10-19T03:29:40.689Z,99319.41
2023-10-19T03:35:05.456Z,99320.84
2023-10-19T03:40:33.572Z,99316.97
2023-10-19T03:45:57.318Z,99313.34
2023-10-19T03:51:20.024Z,99315.63
2023-10-19T03:56:43.152Z,99337.13
2023-10-19T04:02:15.899Z,99320.50
2023-10-19T04:07:43.209Z,99331.50
2023-10-19T04:13:14.322Z,99330.53
2023-10-19T04:18:45.242Z,99334.41
2023-10-19T04:24:11.603Z,99339.94
2023-10-19T04:29:34.013Z,99343.41
2023-10-19T04:34:56.263Z,99351.84
2023-10-19T04:40:19.391Z,99345.09
2023-10-19T04:45:42.426Z,99338.91
2023-10-19T04:51:07.860Z,99346.00
2023-10-19T04:56:29.897Z,99346.53
2023-10-19T05:01:52.181Z,99347.28
2023-10-19T05:07:16.630Z,99348.66
2023-10-19T05:12:39.921Z,99348.88
2023-10-19T05:18:04.066Z,99350.56
2023-10-19T05:23:27.422Z,99356.03
2023-10-19T05:28:49.586Z,99360.63
2023-10-19T05:34:11.491Z,99360.13
2023-10-19T05:39:35.708Z,99359.63
2023-10-19T05:44:58.306Z,99364.22
2023-10-19T05:50:21.309Z,99360.59
2023-10-19T05:55:45.228Z,99363.44
2023-10-19T06:01:07.303Z,99363.69
2023-10-19T06:06:29.984Z,99353.00
2023-10-19T06:11:54.132Z,99351.94
2023-10-19T06:17:22.114Z,99350.22
2023-10-19T06:22:45.753Z,99349.06
2023-10-19T06:28:17.723Z,99343.69
2023-10-19T06:33:43.691Z,99345.66
2023-10-19T06:39:09.869Z,99345.28
2023-10-19T06:44:34.013Z,99353.06
2023-10-19T06:49:58.069Z,99362.16
2023-10-19T06:55:27.422Z,99369.69
2023-10-19T07:00:58.545Z,99373.75
2023-10-19T07:06:21.648Z,99369.50
2023-10-19T07:11:47.641Z,99385.84
2023-10-19T07:17:10.985Z,99385.69
2023-10-19T07:22:36.230Z,99394.41
2023-10-19T07:28:02.165Z,99405.81
2023-10-19T07:33:25.773Z,99393.38
2023-10-19T07:38:49.723Z,99403.03
2023-10-19T07:44:14.506Z,99398.44
2023-10-19T07:49:46.192Z,99384.38
2023-10-19T07:55:10.886Z,99393.25
2023-10-19T08:00:38.004Z,99392.63
2023-10-19T08:06:00.692Z,99392.66
2023-10-19T08:11:24.208Z,99396.44
2023-10-19T08:16:47.581Z,99399.25
2023-10-19T08:22:11.774Z,99397.47
2023-10-19T08:27:35.778Z,99394.38
2023-10-19T08:33:00.553Z,99390.13
2023-10-19T08:38:24.068Z,99390.47
2023-10-19T08:43:47.741Z,99401.25
2023-10-19T08:49:12.848Z,99405.91
2023-10-19T08:54:36.400Z,99406.91
2023-10-19T09:00:01.039Z,99397.38
2023-10-19T09:05:28.388Z,99394.06
2023-10-19T09:10:56.325Z,99401.19
2023-10-19T09:16:22.503Z,99397.91
2023-10-19T09:21:51.391Z,99394.22
2023-10-19T09:27:22.826Z,99406.22
2023-10-19T09:32:57.418Z,99402.78
2023-10-19T09:38:27.682Z,99406.59
2023-10-19T09:43:53.264Z,99396.97
2023-10-19T09:49:15.691Z,99396.97
2023-10-19T09:55:08.239Z,99404.06
2023-10-19T10:00:33.736Z,99395.63
2023-10-19T10:05:56.881Z,99418.03
2023-10-19T10:11:30.194Z,99418.41
2023-10-19T10:17:20.623Z,99422.44
2023-10-19T10:22:43.860Z,99427.53
2023-10-19T10:28:07.246Z,99430.09
2023-10-19T10:33:44.571Z,99425.06
2023-10-19T10:39:07.774Z,99421.66
2023-10-19T10:44:53.904Z,99433.59
2023-10-19T10:50:22.643Z,99431.31
2023-10-19T10:55:45.638Z,99426.94
2023-10-19T11:01:08.042Z,99412.13
2023-10-19T11:06:30.516Z,99443.16
2023-10-19T11:11:56.301Z,99427.44
2023-10-19T11:17:18.691Z,99433.38
2023-10-19T11:22:54.490Z,99431.03
2023-10-19T11:28:21.045Z,99427.00
2023-10-19T11:33:45.379Z,99427.78
2023-10-19T11:39:10.373Z,99427.50
2023-10-19T11:44:33.845Z,99417.59
2023-10-19T11:49:57.956Z,99418.75
2023-10-19T11:55:23.366Z,99422.56
2023-10-19T12:00:48.615Z,99423.78
2023-10-19T12:06:12.656Z,99426.78
2023-10-19T12:11:35.658Z,99421.50
2023-10-19T12:16:59.631Z,99422.53
2023-10-19T12:22:23.025Z,99423.03
2023-10-19T12:27:45.915Z,99429.34
2023-10-19T12:33:13.994Z,99429.09
2023-10-19T12:38:37.102Z,99430.72
2023-10-19T12:44:04.719Z,99430.38
2023-10-19T12:49:30.131Z,99419.75
2023-10-19T12:54:53.362Z,99421.56
2023-10-19T13:00:25.919Z,99423.47
2023-10-19T13:05:51.937Z,99439.94
2023-10-19T13:11:18.895Z,99437.88
2023-10-19T13:16:42.869Z,99440.00
2023-10-19T13:22:09.666Z,99445.00
2023-10-19T13:27:35.593Z,99453.59
2023-10-19T13:33:00.138Z,99444.25
2023-10-19T13:38:23.682Z,99438.44
2023-10-19T13:43:46.402Z,99443.47
2023-10-19T13:49:12.037Z,99450.22
2023-10-19T13:54:34.919Z,99460.22
2023-10-19T13:59:58.743Z,99464.47
2023-10-19T14:05:22.805Z,99468.97
2023-10-19T14:10:46.807Z,99468.78
2023-10-19T14:16:10.335Z,99478.22
2023-10-19T14:21:39.208Z,99471.84
2023-10-19T14:27:01.957Z,99483.47
2023-10-19T14:32:24.549Z,99476.56
2023-10-19T14:37:49.793Z,99485.72
2023-10-19T14:43:13.773Z,99477.66
2023-10-19T14:48:37.498Z,99487.31
2023-10-19T14:54:00.421Z,99490.16
2023-10-19T14:59:23.723Z,99498.03
2023-10-19T15:04:49.940Z,99497.38
2023-10-19T15:10:13.877Z,99495.53
2023-10-19T15:15:38.211Z,99495.53
2023-10-19T15:21:09.004Z,99495.78
2023-10-19T15:26:31.579Z,99489.75
2023-10-19T15:31:53.868Z,99491.09
2023-10-19T15:37:16.142Z,99503.31
2023-10-19T15:42:42.933Z,99494.41
2023-10-19T15:48:06.000Z,99499.00
2023-10-19T15:53:28.256Z,99503.22
2023-10-19T15:58:50.891Z,99498.63
2023-10-19T16:04:13.643Z,99501.25
2023-10-19T16:09:37.073Z,99508.97
2023-10-19T16:14:59.806Z,99511.38
2023-10-19T16:20:23.860Z,99502.84
2023-10-19T16:25:46.531Z,99505.13
2023-10-19T16:31:13.921Z,99491.91
2023-10-19T16:36:37.035Z,99502.59
2023-10-19T16:41:59.692Z,99510.63
2023-10-19T16:47:25.529Z,99504.03
2023-10-19T16:52:50.833Z,99509.94
2023-10-19T16:58:15.018Z,99504.63
2023-10-19T17:03:39.490Z,99511.81
2023-10-19T17:09:14.098Z,99524.53
2023-10-19T17:14:37.953Z,99522.13
2023-10-19T17:20:00.544Z,99521.00
2023-10-19T17:25:31.704Z,99518.78
2023-10-19T17:30:55.562Z,99518.91
2023-10-19T17:36:18.140Z,99525.72
2023-10-19T17:41:41.873Z,99521.31
2023-10-19T17:47:04.699Z,99522.94
2023-10-19T17:52:27.580Z,99526.28
2023-10-19T17:57:52.210Z,99536.13
2023-10-19T18:03:16.327Z,99533.47
2023-10-19T18:08:40.242Z,99536.16
2023-10-19T18:14:03.376Z,99537.25
2023-10-19T18:19:26.889Z,99531.41
2023-10-19T18:24:49.778Z,99547.56
2023-10-19T18:30:23.990Z,99543.22
2023-10-19T18:35:51.380Z,99543.34
2023-10-19T18:41:14.025Z,99554.84
2023-10-19T18:46:36.601Z,99545.00
2023-10-19T18:51:59.841Z,99547.28
2023-10-19T18:57:22.579Z,99542.28
2023-10-19T19:02:45.394Z,99546.00
2023-10-19T19:08:08.685Z,99537.91
2023-10-19T19:13:31.656Z,99544.22
2023-10-19T19:18:54.430Z,99539.19
2023-10-19T19:24:17.545Z,99545.13
2023-10-19T19:29:40.928Z,99555.22
2023-10-19T19:35:03.565Z,99558.25
2023-10-19T19:40:27.071Z,99560.28
2023-10-19T19:45:49.535Z,99553.22
2023-10-19T19:51:14.049Z,99556.16
2023-10-19T19:56:37.941Z,99557.56
2023-10-19T20:02:00.305Z,99553.22
2023-10-19T20:07:22.486Z,99554.91
2023-10-19T20:12:45.413Z,99562.34
2023-10-19T20:18:08.423Z,99562.75
2023-10-19T20:29:07.931Z,99564.88
2023-10-19T20:34:30.496Z,99568.75
2023-10-19T20:39:53.363Z,99586.66
2023-10-19T20:45:19.774Z,99585.13
2023-10-19T20:50:42.099Z,99579.38
2023-10-19T20:56:05.432Z,99585.31
2023-10-19T21:01:28.416Z,99589.13
2023-10-19T21:06:51.048Z,99593.13
2023-10-19T21:12:13.589Z,99591.53
2023-10-19T21:17:36.367Z,99587.50
2023-10-19T21:22:58.359Z,99578.53
2023-10-19T21:28:21.388Z,99586.28
2023-10-19T21:33:44.794Z,99582.63
2023-10-19T21:39:08.898Z,99597.03
2023-10-19T21:44:35.723Z,99590.81
2023-10-19T21:49:59.230Z,99590.34
2023-10-19T21:55:21.807Z,99600.28
2023-10-19T22:00:45.451Z,99601.94
2023-10-19T22:06:08.011Z,99604.94
2023-10-19T22:11:30.248Z,99606.78
2023-10-19T22:16:54.153Z,99611.19
2023-10-19T22:22:16.530Z,99611.56
2023-10-19T22:27:38.867Z,99616.03
2023-10-19T22:33:01.936Z,99614.94
2023-10-19T22:38:24.382Z,99611.88
2023-10-19T22:43:47.994Z,99612.84
2023-10-19T22:49:10.244Z,99611.22
2023-10-19T22:54:32.556Z,99614.34
2023-10-19T22:59:55.285Z,99622.38
2023-10-19T23:05:21.934Z,99613.78
2023-10-19T23:10:46.862Z,99610.00
2023-10-19T23:16:09.727Z,99617.00
2023-10-19T23:21:34.569Z,99621.13
2023-10-19T23:26:56.806Z,99625.03
2023-10-19T23:32:20.121Z,99622.63
2023-10-19T23:37:43.739Z,99621.22
2023-10-19T23:43:06.855Z,99610.63
2023-10-19T23:48:29.311Z,99611.59
2023-10-19T23:53:52.307Z,99616.25
2023-10-19T23:59:14.307Z,99626.09
